Oxford, MA (01540)

10:46 PM EDT on October 31, 2014 (GMT -0400)
West Sutton | Change Station
CLOSE
Current Station
Personal Weather Station
Location: Sutton, MA
Elevation: 604 ft
Nearby Weather Stations

Elev 604 ft 42.14 °N, 71.80 °W | Updated 2 seconds ago

Overcast
Overcast
44.8 °F
Feels Like 45 °F
N
2.0
Wind Variable Wind from NNE
Gusts 2.0 mph

Today
High -- | Low -- °F
--% Chance of Precip.
Yesterday
High -- | Low -- °F
Precip. -- in
7:19 AM 5:42 PM
First Quarter, 61% visible
Pressure 29.99 in
Visibility 10.0 miles
Clouds Overcast 4200 ft
Windchill 45 °F
Dew Point 38 °F
Humidity 77%
Rainfall 0.00 in
Snow Depth Not available.
UV 0 out of 12
Pollen .20 out of 12
Air Quality Not available.
Flu Activity Not available.
METAR KORH 010154Z AUTO 05007KT 10SM OVC042 06/01 A2997 RMK AO2 SLP154 T00610011

More Conditions Fewer Conditions

Pressure 29.99 in
Visibility 10.0 miles
Clouds Overcast 4200 ft
Windchill 45 °F
Dew Point 38 °F
Humidity 77%
Rainfall 0.00 in
Snow Depth Not available.
UV 0 out of 12
Pollen .20 out of 12
Air Quality Not available.
Flu Activity Not available.
METAR KORH 010154Z AUTO 05007KT 10SM OVC042 06/01 A2997 RMK AO2 SLP154 T00610011

More Conditions Fewer Conditions

10-Day Weather Forecast

Almanac

Astronomy

Oct. 31, 2014 Rise Set
Actual Time
Civil Twilight
Nautical Twilight
Astronomical Twilight
Moon
Length of Visible Light
Length of Day
Tomorrow will be .
, % of the Moon is Illuminated

Today's Extremes

State Highs State Lows

Community

WunderPhotos

Upload Photos

1,766,824 photos uploaded!

WunderBlogs® & News

Nearby

Air Quality

  Air Quality AQ Index Pollutant
Not available.

Snow Depth

Station Depth Elevation

Earthquake Activity

City Distance Mag. Time & Date
Minimum magnitude displayed is 2.5.

Coastal Water Temperatures

Place Temperature

Nearby Weather Stations